KBVI

Beaver County Airport

Beaver Falls, Pennsylvania, USA

KBVI 201947Z 24009G14KT 10SM SCT040 BKN050 BKN060 30/21 A3000

Observed Flight Rules
Jul-20 @ 19:47 UTC (45 minutes ago)
 
Visual Flight Rules
Wind Visibility Clouds
240° at 9 knots
 Gusting to 14 knots
10 miles
  • Scattered at 4,000' AGL
  • Broken at 5,000' AGL
  • Broken at 6,000' AGL
Temperatures Readings
Current 30°C / 86°F
Dewpoint 21°C / 70°F
Humidity 59%
Altimeter 30" Hg
Pressure 1016 hPa
Elevation 382
Observed Flight Rules
Jul-20 @ 19:47 UTC
(45 minutes ago)
 
VFR
Wind Visibility
240° at 9 knots
 Gusting to 14 knots
10 miles
Clouds
  • Scattered at 4,000' AGL
  • Broken at 5,000' AGL
  • Broken at 6,000' AGL
Temperature Dewpoint
30°C / 86°F 21°C / 70°F
Humidity Altimeter Pressure
59% 30" Hg 1016 hPa